createdAt,value
2019-02-17T00:01:18.991Z,48.80
2019-02-17T00:03:46.976Z,71.43
2019-02-17T00:06:14.867Z,57.70
2019-02-17T00:08:42.776Z,51.30
2019-02-17T00:11:10.719Z,53.70
2019-02-17T00:13:39.584Z,79.77
2019-02-17T00:16:07.494Z,79.17
2019-02-17T00:18:35.606Z,79.90
2019-02-17T00:21:03.588Z,59.33
2019-02-17T00:23:31.496Z,59.43
2019-02-17T00:25:59.434Z,53.60
2019-02-17T00:28:27.327Z,64.67
2019-02-17T00:30:58.243Z,68.33
2019-02-17T00:33:26.559Z,71.17
2019-02-17T00:35:54.593Z,64.77
2019-02-17T00:38:22.563Z,66.83
2019-02-17T00:40:50.482Z,66.13
2019-02-17T00:43:18.494Z,70.27
2019-02-17T00:45:46.440Z,67.57
2019-02-17T00:48:14.335Z,70.03
2019-02-17T00:50:42.287Z,69.80
2019-02-17T00:53:10.177Z,70.30
2019-02-17T00:55:38.063Z,60.83
2019-02-17T00:58:06.017Z,70.57
2019-02-17T01:00:33.913Z,64.37
2019-02-17T01:03:01.913Z,67.33
2019-02-17T01:05:29.891Z,64.00
2019-02-17T01:07:57.923Z,65.00
2019-02-17T01:10:26.007Z,61.67
2019-02-17T01:12:54.047Z,63.00
2019-02-17T01:15:21.997Z,64.50
2019-02-17T01:17:50.820Z,56.40
2019-02-17T01:20:20.933Z,56.87
2019-02-17T01:22:49.020Z,52.40
2019-02-17T01:25:18.169Z,53.43
2019-02-17T01:27:46.328Z,53.80
2019-02-17T01:30:14.398Z,52.47
2019-02-17T01:32:42.449Z,50.90
2019-02-17T01:35:10.447Z,49.93
2019-02-17T01:37:38.476Z,50.27
2019-02-17T01:40:06.772Z,50.17
2019-02-17T01:42:34.988Z,45.93
2019-02-17T01:45:03.041Z,46.20
2019-02-17T01:47:31.035Z,46.83
2019-02-17T01:50:00.689Z,48.00
2019-02-17T01:52:28.631Z,45.20
2019-02-17T01:54:56.756Z,47.50
2019-02-17T01:57:24.831Z,44.07
2019-02-17T01:59:52.856Z,40.13
2019-02-17T02:02:21.050Z,44.40
2019-02-17T02:04:48.994Z,43.77
2019-02-17T02:07:17.154Z,45.43
2019-02-17T02:09:45.189Z,41.13
2019-02-17T02:12:13.206Z,38.53
2019-02-17T02:14:41.209Z,45.67
2019-02-17T02:17:09.275Z,46.50
2019-02-17T02:19:37.390Z,45.37
2019-02-17T02:22:05.481Z,44.03
2019-02-17T02:24:34.806Z,43.33
2019-02-17T02:27:02.879Z,39.23
2019-02-17T02:29:40.782Z,45.77
2019-02-17T02:32:04.369Z,42.97
2019-02-17T02:34:35.514Z,43.13
2019-02-17T02:37:03.612Z,45.03
2019-02-17T02:39:32.586Z,44.27
2019-02-17T02:42:00.704Z,42.23
2019-02-17T02:44:28.717Z,36.70
2019-02-17T02:46:57.948Z,40.53
2019-02-17T02:49:25.970Z,40.13
2019-02-17T02:51:54.028Z,40.20
2019-02-17T02:54:22.037Z,39.33
2019-02-17T02:56:50.051Z,40.10
2019-02-17T02:59:18.238Z,40.83
2019-02-17T03:01:46.198Z,34.87
2019-02-17T03:04:14.378Z,36.83
2019-02-17T03:07:01.410Z,39.53
2019-02-17T03:09:29.546Z,34.83
2019-02-17T03:11:57.637Z,40.13
2019-02-17T03:14:25.623Z,38.47
2019-02-17T03:16:53.633Z,40.80
2019-02-17T03:19:21.989Z,41.53
2019-02-17T03:21:50.089Z,36.50
2019-02-17T03:24:18.399Z,36.30
2019-02-17T03:26:47.324Z,39.93
2019-02-17T03:29:17.408Z,37.63
2019-02-17T03:31:45.606Z,34.93
2019-02-17T03:34:13.766Z,36.90
2019-02-17T03:36:41.861Z,39.00
2019-02-17T03:39:09.938Z,36.53
2019-02-17T03:41:37.918Z,40.40
2019-02-17T03:44:05.981Z,35.33
2019-02-17T03:46:34.142Z,33.67
2019-02-17T03:49:02.308Z,34.87
2019-02-17T03:51:30.411Z,31.57
2019-02-17T03:53:58.793Z,37.67
2019-02-17T03:56:27.015Z,35.43
2019-02-17T03:58:55.078Z,37.47
2019-02-17T04:01:23.165Z,38.00
2019-02-17T04:03:51.133Z,36.80
2019-02-17T04:06:19.241Z,38.57
2019-02-17T04:08:47.406Z,36.03
2019-02-17T04:11:15.530Z,34.63
2019-02-17T04:13:43.506Z,40.23
2019-02-17T04:16:11.565Z,37.90
2019-02-17T04:18:39.547Z,35.30
2019-02-17T04:21:07.641Z,36.63
2019-02-17T04:23:35.693Z,38.37
2019-02-17T04:26:03.795Z,37.53
2019-02-17T04:28:32.955Z,38.47
2019-02-17T04:31:01.006Z,37.57
2019-02-17T04:33:28.963Z,35.13
2019-02-17T04:35:57.128Z,36.73
2019-02-17T04:38:25.241Z,35.23
2019-02-17T04:40:53.522Z,36.57
2019-02-17T04:43:27.508Z,35.60
2019-02-17T04:45:58.781Z,36.63
2019-02-17T04:48:26.809Z,36.67
2019-02-17T04:50:54.975Z,41.03
2019-02-17T04:53:24.077Z,35.23
2019-02-17T04:55:52.282Z,39.80
2019-02-17T04:58:20.312Z,36.10
2019-02-17T05:00:50.043Z,39.63
2019-02-17T05:03:18.581Z,35.57
2019-02-17T05:05:46.814Z,34.53
2019-02-17T05:08:14.983Z,38.03
2019-02-17T05:10:43.108Z,35.20
2019-02-17T05:13:12.850Z,34.03
2019-02-17T05:15:40.913Z,37.23
2019-02-17T05:18:08.899Z,36.50
2019-02-17T05:20:37.206Z,32.93
2019-02-17T05:23:05.303Z,37.37
2019-02-17T05:25:34.361Z,41.70
2019-02-17T05:28:02.319Z,39.50
2019-02-17T05:30:32.011Z,33.10
2019-02-17T05:33:00.001Z,36.53
2019-02-17T05:35:28.061Z,31.90
2019-02-17T05:37:56.110Z,41.93
2019-02-17T05:40:24.152Z,37.50
2019-02-17T05:42:52.310Z,37.23
2019-02-17T05:45:20.332Z,42.17
2019-02-17T05:47:48.636Z,36.13
2019-02-17T05:50:16.704Z,38.23
2019-02-17T05:52:44.773Z,35.13
2019-02-17T05:55:12.842Z,39.63
2019-02-17T05:57:42.744Z,36.63
2019-02-17T06:00:13.558Z,35.90
2019-02-17T06:02:41.487Z,37.03
2019-02-17T06:05:09.508Z,35.10
2019-02-17T06:07:37.477Z,31.93
2019-02-17T06:10:06.063Z,35.53
2019-02-17T06:12:34.150Z,35.70
2019-02-17T06:15:02.416Z,30.67
2019-02-17T06:17:30.749Z,32.37
2019-02-17T06:19:58.818Z,34.07
2019-02-17T06:22:26.858Z,35.97
2019-02-17T06:24:54.953Z,34.60
2019-02-17T06:27:22.979Z,34.07
2019-02-17T06:29:51.036Z,37.13
2019-02-17T06:32:19.177Z,34.27
2019-02-17T06:34:47.239Z,39.60
2019-02-17T06:37:15.352Z,33.17
2019-02-17T06:39:44.802Z,31.37
2019-02-17T06:42:13.563Z,36.60
2019-02-17T06:44:41.566Z,33.63
2019-02-17T06:47:15.388Z,34.07
2019-02-17T06:49:43.405Z,38.13
2019-02-17T06:52:11.356Z,37.23
2019-02-17T06:54:39.428Z,33.37
2019-02-17T06:57:26.508Z,35.80
2019-02-17T07:00:10.197Z,31.83
2019-02-17T07:02:38.187Z,33.20
2019-02-17T07:05:16.364Z,36.83
2019-02-17T07:07:44.446Z,32.87
2019-02-17T07:10:12.556Z,35.00
2019-02-17T07:12:42.624Z,33.47
2019-02-17T07:15:10.530Z,34.57
2019-02-17T07:17:38.479Z,35.03
2019-02-17T07:20:06.618Z,31.83
2019-02-17T07:22:34.865Z,31.37
2019-02-17T07:25:02.936Z,32.90
2019-02-17T07:27:34.951Z,32.50
2019-02-17T07:30:03.067Z,34.20
2019-02-17T07:32:31.089Z,32.23
2019-02-17T07:34:59.860Z,30.23
2019-02-17T07:37:33.551Z,31.80
2019-02-17T07:39:57.820Z,31.10
2019-02-17T07:42:25.860Z,30.27
2019-02-17T07:44:53.928Z,29.97
2019-02-17T07:47:22.545Z,32.83
2019-02-17T07:49:50.737Z,29.90
2019-02-17T07:52:18.850Z,25.53
2019-02-17T07:54:46.839Z,28.50
2019-02-17T07:57:15.882Z,29.23
2019-02-17T07:59:43.929Z,28.87
2019-02-17T08:02:12.009Z,25.17
2019-02-17T08:04:40.067Z,29.43
2019-02-17T08:07:08.116Z,27.20
2019-02-17T08:09:36.262Z,26.03
2019-02-17T08:12:04.259Z,26.67
2019-02-17T08:14:32.246Z,26.53
2019-02-17T08:17:00.239Z,26.83
2019-02-17T08:19:28.281Z,30.93
2019-02-17T08:21:56.244Z,26.63
2019-02-17T08:24:24.584Z,29.23
2019-02-17T08:26:54.129Z,27.97
2019-02-17T08:29:22.163Z,28.20
2019-02-17T08:31:55.976Z,26.90
2019-02-17T08:34:19.950Z,25.53
2019-02-17T08:36:48.037Z,27.07
2019-02-17T08:39:16.402Z,27.77
2019-02-17T08:41:44.555Z,28.80
2019-02-17T08:44:12.656Z,24.27
2019-02-17T08:46:40.700Z,25.90
2019-02-17T08:49:08.707Z,24.33
2019-02-17T08:51:36.906Z,27.37
2019-02-17T08:54:04.866Z,26.43
2019-02-17T08:56:32.941Z,26.60
2019-02-17T08:59:02.414Z,30.30
2019-02-17T09:01:30.457Z,27.17
2019-02-17T09:03:58.980Z,26.43
2019-02-17T09:06:27.013Z,27.23
2019-02-17T09:08:55.125Z,25.30
2019-02-17T09:11:23.167Z,24.67
2019-02-17T09:13:51.171Z,27.93
2019-02-17T09:16:19.244Z,25.97
2019-02-17T09:18:48.251Z,26.43
2019-02-17T09:21:18.148Z,26.10
2019-02-17T09:23:46.226Z,25.23
2019-02-17T09:26:14.248Z,25.77
2019-02-17T09:28:42.328Z,23.23
2019-02-17T09:31:10.516Z,24.53
2019-02-17T09:33:38.585Z,26.43
2019-02-17T09:36:07.080Z,26.10
2019-02-17T09:38:35.064Z,26.12
2019-02-17T09:41:03.180Z,23.73
2019-02-17T09:43:31.287Z,28.57
2019-02-17T09:45:59.228Z,24.87
2019-02-17T09:48:27.294Z,22.90
2019-02-17T09:50:55.366Z,21.87
2019-02-17T09:53:23.721Z,24.87
2019-02-17T09:55:51.819Z,25.70
2019-02-17T09:58:21.797Z,22.17
2019-02-17T10:00:49.786Z,22.27
2019-02-17T10:03:17.922Z,22.20
2019-02-17T10:05:47.262Z,22.37
2019-02-17T10:08:15.234Z,24.03
2019-02-17T10:10:43.216Z,25.07
2019-02-17T10:13:11.279Z,23.10
2019-02-17T10:15:39.241Z,25.27
2019-02-17T10:18:07.334Z,21.43
2019-02-17T10:20:35.547Z,22.23
2019-02-17T10:23:03.764Z,21.97
2019-02-17T10:25:31.888Z,24.30
2019-02-17T10:28:00.059Z,23.10
2019-02-17T10:30:28.267Z,24.60
2019-02-17T10:32:56.204Z,23.30
2019-02-17T10:35:24.389Z,22.03
2019-02-17T10:37:52.447Z,22.67
2019-02-17T10:40:21.845Z,22.83
2019-02-17T10:42:49.920Z,22.67
2019-02-17T10:45:18.063Z,24.40
2019-02-17T10:47:46.138Z,23.63
2019-02-17T10:50:14.202Z,20.07
2019-02-17T10:52:42.291Z,23.13
2019-02-17T10:55:13.807Z,22.83
2019-02-17T10:57:42.179Z,21.83
2019-02-17T11:00:12.339Z,27.60
2019-02-17T11:02:47.089Z,24.17
2019-02-17T11:05:10.928Z,26.03
2019-02-17T11:07:40.735Z,21.33
2019-02-17T11:10:09.051Z,24.83
2019-02-17T11:12:37.193Z,22.37
2019-02-17T11:15:05.980Z,21.03
2019-02-17T11:17:34.074Z,21.23
2019-02-17T11:20:02.282Z,23.00
2019-02-17T11:22:30.380Z,21.27
2019-02-17T11:24:58.542Z,25.83
2019-02-17T11:27:26.705Z,20.23
2019-02-17T11:29:54.870Z,22.03
2019-02-17T11:32:23.176Z,23.13
2019-02-17T11:34:51.130Z,22.83
2019-02-17T11:37:19.206Z,21.87
2019-02-17T11:39:47.261Z,21.87
2019-02-17T11:42:16.177Z,22.60
2019-02-17T11:44:44.415Z,23.00
2019-02-17T11:47:12.380Z,24.70
2019-02-17T11:49:40.313Z,23.83
2019-02-17T11:52:08.409Z,22.87
2019-02-17T11:54:36.425Z,23.00
2019-02-17T11:57:04.890Z,22.07
2019-02-17T11:59:32.882Z,23.17
2019-02-17T12:02:00.900Z,24.43
2019-02-17T12:04:28.904Z,23.30
2019-02-17T12:06:57.011Z,24.67
2019-02-17T12:09:25.259Z,25.20
2019-02-17T12:11:53.344Z,22.63
2019-02-17T12:14:21.413Z,24.93
2019-02-17T12:16:50.767Z,27.27
2019-02-17T12:19:19.098Z,20.57
2019-02-17T12:22:13.141Z,24.43
2019-02-17T12:24:52.046Z,23.53
2019-02-17T12:27:33.769Z,23.30
2019-02-17T12:30:08.094Z,26.10
2019-02-17T12:32:36.120Z,23.17
2019-02-17T12:35:04.269Z,22.47
2019-02-17T12:37:32.245Z,21.73
2019-02-17T12:40:00.629Z,21.60
2019-02-17T12:42:28.761Z,26.27
2019-02-17T12:44:57.212Z,25.27
2019-02-17T12:47:25.475Z,22.40
2019-02-17T12:49:53.547Z,21.67
2019-02-17T12:52:21.732Z,21.67
2019-02-17T12:54:49.720Z,25.20
2019-02-17T12:57:17.712Z,20.77
2019-02-17T12:59:45.745Z,22.43
2019-02-17T13:02:13.775Z,20.33
2019-02-17T13:04:41.924Z,25.10
2019-02-17T13:07:09.891Z,21.47
2019-02-17T13:09:37.817Z,20.97
2019-02-17T13:12:06.048Z,26.50
2019-02-17T13:14:33.983Z,22.40
2019-02-17T13:17:04.472Z,20.40
2019-02-17T13:19:34.066Z,19.60
2019-02-17T13:22:02.073Z,20.23
2019-02-17T13:24:30.220Z,21.33
2019-02-17T13:26:58.292Z,19.33
2019-02-17T13:29:26.319Z,20.73
2019-02-17T13:31:55.409Z,21.90
2019-02-17T13:34:23.563Z,22.33
2019-02-17T13:36:51.599Z,19.07
2019-02-17T13:39:19.626Z,19.93
2019-02-17T13:41:47.712Z,22.27
2019-02-17T13:44:15.733Z,20.50
2019-02-17T13:46:45.247Z,19.37
2019-02-17T13:49:13.833Z,19.40
2019-02-17T13:51:41.748Z,19.10
2019-02-17T13:54:11.303Z,21.47
2019-02-17T13:56:39.304Z,19.47
2019-02-17T13:59:07.250Z,20.37
2019-02-17T14:01:35.409Z,21.57
2019-02-17T14:04:03.499Z,21.57
2019-02-17T14:06:31.521Z,20.50
2019-02-17T14:08:59.561Z,18.03
2019-02-17T14:11:27.634Z,17.63
2019-02-17T14:13:55.707Z,19.03
2019-02-17T14:16:23.726Z,18.83
2019-02-17T14:18:51.705Z,17.33
2019-02-17T14:21:19.789Z,17.70
2019-02-17T14:23:48.012Z,15.30
2019-02-17T14:26:16.094Z,16.87
2019-02-17T14:28:44.254Z,16.27
2019-02-17T14:31:12.453Z,16.13
2019-02-17T14:33:40.453Z,16.17
2019-02-17T14:36:08.556Z,15.33
2019-02-17T14:38:36.572Z,14.67
2019-02-17T14:41:04.603Z,15.10
2019-02-17T14:43:32.696Z,13.80
2019-02-17T14:46:01.007Z,16.97
2019-02-17T14:48:29.115Z,16.37
2019-02-17T14:50:57.112Z,14.53
2019-02-17T14:53:25.221Z,16.70
2019-02-17T14:55:53.271Z,14.47
2019-02-17T14:58:21.298Z,13.37
2019-02-17T15:00:49.363Z,17.30
2019-02-17T15:03:17.723Z,16.63
2019-02-17T15:05:45.713Z,14.73
2019-02-17T15:08:13.781Z,18.27
2019-02-17T15:10:41.913Z,16.33
2019-02-17T15:13:10.362Z,15.60
2019-02-17T15:15:38.413Z,19.57
2019-02-17T15:18:06.514Z,16.47
2019-02-17T15:20:34.530Z,15.90
2019-02-17T15:23:02.640Z,16.63
2019-02-17T15:25:31.478Z,17.37
2019-02-17T15:27:59.544Z,15.83
2019-02-17T15:30:28.812Z,16.13
2019-02-17T15:33:03.547Z,16.10
2019-02-17T15:35:26.553Z,14.87
2019-02-17T15:37:54.782Z,15.60
2019-02-17T15:40:23.515Z,16.33
2019-02-17T15:42:51.761Z,14.77
2019-02-17T15:45:22.731Z,15.77
2019-02-17T15:47:50.827Z,18.40
2019-02-17T15:50:18.921Z,16.63
2019-02-17T15:52:47.121Z,17.80
2019-02-17T15:55:15.229Z,19.57
2019-02-17T15:57:55.651Z,14.80
2019-02-17T16:00:23.952Z,16.47
2019-02-17T16:02:52.087Z,16.77
2019-02-17T16:05:20.343Z,22.10
2019-02-17T16:07:48.417Z,17.37
2019-02-17T16:10:16.344Z,17.60
2019-02-17T16:12:44.283Z,20.70
2019-02-17T16:15:14.401Z,16.77
2019-02-17T16:17:42.613Z,19.73
2019-02-17T16:20:11.429Z,18.83
2019-02-17T16:22:39.618Z,19.00
2019-02-17T16:25:10.326Z,18.50
2019-02-17T16:27:40.822Z,16.33
2019-02-17T16:30:10.737Z,16.03
2019-02-17T16:32:47.462Z,17.13
2019-02-17T16:35:15.538Z,14.10
2019-02-17T16:37:43.586Z,15.63
2019-02-17T16:40:11.880Z,14.70
2019-02-17T16:42:39.981Z,15.97
2019-02-17T16:45:09.018Z,12.20
2019-02-17T16:47:37.510Z,13.20
2019-02-17T16:50:08.718Z,16.97
2019-02-17T16:52:36.831Z,15.70
2019-02-17T16:55:05.121Z,13.33
2019-02-17T16:57:33.250Z,14.73
2019-02-17T17:00:01.415Z,14.93
2019-02-17T17:02:29.558Z,14.57
2019-02-17T17:04:57.935Z,13.00
2019-02-17T17:07:25.988Z,13.87
2019-02-17T17:09:53.980Z,12.83
2019-02-17T17:12:21.989Z,14.50
2019-02-17T17:14:50.072Z,14.70
2019-02-17T17:17:18.120Z,12.97
2019-02-17T17:19:46.318Z,12.17
2019-02-17T17:22:14.285Z,13.07
2019-02-17T17:24:42.283Z,13.10
2019-02-17T17:27:10.223Z,16.13
2019-02-17T17:29:38.640Z,13.80
2019-02-17T17:32:06.626Z,14.97
2019-02-17T17:34:34.561Z,14.77
2019-02-17T17:37:02.496Z,17.17
2019-02-17T17:39:30.474Z,12.57
2019-02-17T17:41:58.407Z,15.03
2019-02-17T17:44:26.400Z,13.90
2019-02-17T17:46:54.349Z,13.73
2019-02-17T17:49:22.317Z,15.00
2019-02-17T17:51:50.322Z,15.37
2019-02-17T17:54:18.260Z,14.47
2019-02-17T17:56:46.162Z,15.50
2019-02-17T17:59:14.252Z,15.53
2019-02-17T18:01:42.237Z,13.03
2019-02-17T18:04:10.137Z,14.73
2019-02-17T18:06:38.176Z,16.57
2019-02-17T18:09:06.949Z,14.13
2019-02-17T18:11:34.928Z,13.90
2019-02-17T18:14:02.906Z,11.90
2019-02-17T18:16:31.116Z,13.97
2019-02-17T18:18:59.042Z,18.83
2019-02-17T18:21:27.023Z,12.57
2019-02-17T18:23:55.050Z,14.43
2019-02-17T18:26:23.082Z,15.90
2019-02-17T18:28:51.080Z,17.80
2019-02-17T18:31:19.099Z,12.73
2019-02-17T18:33:47.012Z,13.97
2019-02-17T18:36:15.013Z,16.40
2019-02-17T18:38:42.978Z,12.30
2019-02-17T18:41:10.891Z,13.00
2019-02-17T18:43:38.943Z,12.07
2019-02-17T18:46:06.961Z,15.00
2019-02-17T18:48:34.864Z,11.20
2019-02-17T18:51:02.937Z,16.10
2019-02-17T18:53:30.955Z,14.10
2019-02-17T18:55:58.934Z,11.67
2019-02-17T18:58:26.855Z,11.20
2019-02-17T19:00:54.765Z,12.43
2019-02-17T19:03:22.864Z,11.77
2019-02-17T19:05:50.840Z,11.07
2019-02-17T19:08:18.821Z,14.87
2019-02-17T19:10:46.874Z,12.67
2019-02-17T19:13:14.832Z,14.17
2019-02-17T19:15:42.828Z,12.60
2019-02-17T19:18:10.768Z,11.90
2019-02-17T19:20:38.801Z,12.20
2019-02-17T19:23:06.920Z,12.70
2019-02-17T19:25:35.658Z,12.90
2019-02-17T19:28:03.838Z,13.37
2019-02-17T19:30:31.941Z,11.80
2019-02-17T19:32:59.946Z,11.27
2019-02-17T19:35:27.918Z,11.63
2019-02-17T19:37:55.887Z,11.50
2019-02-17T19:40:23.914Z,12.37
2019-02-17T19:42:51.951Z,11.00
2019-02-17T19:45:20.336Z,14.97
2019-02-17T19:47:48.359Z,14.37
2019-02-17T19:50:16.371Z,12.60
2019-02-17T19:52:45.965Z,11.77
2019-02-17T19:55:13.905Z,11.83
2019-02-17T19:57:41.914Z,12.13
2019-02-17T20:00:10.856Z,12.10
2019-02-17T20:02:54.898Z,13.77
2019-02-17T20:05:25.950Z,12.47
2019-02-17T20:07:53.970Z,12.83
2019-02-17T20:10:22.082Z,11.07
2019-02-17T20:12:50.055Z,14.17
2019-02-17T20:15:18.162Z,13.90
2019-02-17T20:17:46.341Z,11.63
2019-02-17T20:20:14.320Z,11.87
2019-02-17T20:22:42.515Z,10.60
2019-02-17T20:25:10.563Z,12.30
2019-02-17T20:27:38.778Z,12.63
2019-02-17T20:30:08.220Z,12.07
2019-02-17T20:32:36.269Z,12.63
2019-02-17T20:35:04.663Z,11.10
2019-02-17T20:37:32.693Z,13.03
2019-02-17T20:40:01.065Z,10.90
2019-02-17T20:42:29.414Z,12.43
2019-02-17T20:44:57.475Z,12.63
2019-02-17T20:47:25.828Z,13.93
2019-02-17T20:49:53.931Z,12.53
2019-02-17T20:52:22.316Z,15.93
2019-02-17T20:54:50.542Z,10.90
2019-02-17T20:57:18.722Z,11.63
2019-02-17T20:59:46.921Z,11.90
2019-02-17T21:02:15.043Z,11.53
2019-02-17T21:04:43.156Z,11.73
2019-02-17T21:07:11.227Z,13.63
2019-02-17T21:09:39.347Z,12.60
2019-02-17T21:12:07.326Z,12.10
2019-02-17T21:14:35.448Z,12.30
2019-02-17T21:17:03.469Z,11.47
2019-02-17T21:19:33.544Z,12.23
2019-02-17T21:22:01.571Z,14.67
2019-02-17T21:24:29.584Z,13.63
2019-02-17T21:26:57.757Z,11.57
2019-02-17T21:29:25.987Z,13.97
2019-02-17T21:31:55.552Z,13.97
2019-02-17T21:34:24.973Z,12.27
2019-02-17T21:36:53.889Z,12.13
2019-02-17T21:39:22.319Z,13.83
2019-02-17T21:41:50.390Z,11.73
2019-02-17T21:44:18.543Z,15.73
2019-02-17T21:46:46.879Z,11.67
2019-02-17T21:49:14.955Z,13.00
2019-02-17T21:51:45.046Z,12.00
2019-02-17T21:54:13.215Z,12.13
2019-02-17T21:56:41.545Z,15.00
2019-02-17T21:59:09.853Z,12.23
2019-02-17T22:01:38.253Z,17.27
2019-02-17T22:04:07.317Z,12.93
2019-02-17T22:06:35.520Z,13.03
2019-02-17T22:09:04.870Z,13.47
2019-02-17T22:11:33.177Z,16.43
2019-02-17T22:14:01.275Z,11.60
2019-02-17T22:16:29.591Z,13.40
2019-02-17T22:18:57.835Z,12.53
2019-02-17T22:21:26.510Z,14.13
2019-02-17T22:23:54.746Z,12.27
2019-02-17T22:26:33.250Z,12.50
2019-02-17T22:29:01.499Z,12.47
2019-02-17T22:31:29.830Z,12.20
2019-02-17T22:34:01.343Z,13.17
2019-02-17T22:36:31.790Z,13.50
2019-02-17T22:39:00.292Z,11.63
2019-02-17T22:41:30.731Z,13.70
2019-02-17T22:43:58.929Z,13.40
2019-02-17T22:46:27.013Z,13.30
2019-02-17T22:48:55.118Z,14.07
2019-02-17T22:51:23.385Z,13.67
2019-02-17T22:53:51.844Z,15.00
2019-02-17T22:56:19.895Z,14.60
2019-02-17T22:58:48.161Z,14.33
2019-02-17T23:01:19.839Z,14.77
2019-02-17T23:03:47.964Z,15.80
2019-02-17T23:06:15.951Z,14.57
2019-02-17T23:08:44.043Z,13.93
2019-02-17T23:11:12.325Z,14.93
2019-02-17T23:13:40.265Z,14.50
2019-02-17T23:16:08.240Z,14.37
2019-02-17T23:18:36.155Z,13.77
2019-02-17T23:21:04.363Z,16.70
2019-02-17T23:23:32.593Z,14.33
2019-02-17T23:26:00.507Z,15.47
2019-02-17T23:28:28.481Z,16.50
2019-02-17T23:30:56.569Z,15.83
2019-02-17T23:33:24.516Z,15.30
2019-02-17T23:35:52.470Z,15.10
2019-02-17T23:38:20.359Z,16.20
2019-02-17T23:40:48.292Z,15.57
2019-02-17T23:43:16.224Z,14.73
2019-02-17T23:45:44.725Z,15.83
2019-02-17T23:48:12.643Z,16.40
2019-02-17T23:50:40.658Z,15.97
2019-02-17T23:53:08.591Z,15.70
2019-02-17T23:55:36.488Z,16.67
2019-02-17T23:58:04.423Z,17.13
